Detall de PIREP

Printer-friendly versionPDF version

[2011/11/04 08:27:00]
Flight IATA:CT2103
Pilot Number:041
Company ICAO:CAT
Aircraft Type:B753/E
PAX:59
Departing Airport: LEBZ
Destination Airport: LEVC
Alternate Airport:LEPA
Online: VATSIM
Route:CCS G7 CJN A33 CENTA
Flight Level:F240
No Slew and time accel
No pause
Crash detect
Detect pilot in Cockpit between each 30 and 45 minutes
08:27 Zero fuel Weight: 202120 Lbs, Fuel Weight: 26172 Lbs
08:27 VATSIM:LEBZ 040800Z VRB02KT 9999 SCT025 11/10 Q0997
08:27 VATSIM:LEVC 040800Z 29004KT 9999 FEW030 14/13 Q1001 NOSIG
08:27 VOICE CATALONIAN
08:30 Parking Brakes off
08:37 Take-off
08:37 Take off Weight: 227011 Lbs
08:37 Wind: 056º @ 001 Knots Heading: 124º
08:37 POS N38º 53´ 17´´ W006º 48´ 55´´
08:37 Gear Up: 192 Knots
08:37 Flaps:2 at 192 Knots
08:37 Flaps:1 at 206 Knots
08:37 Flaps:0 at 210 Knots
08:44 TOC
08:44 Fuel Weight: 22052 Lb
08:52 Wind:217º@041 Knots Heading: 078º Ground Speed: 440 Knots Altitude 23513 ft
09:07 Wind:202º@062 Knots Heading: 080º Ground Speed: 445 Knots Altitude 23543 ft
09:09 TOD
09:09 Fuel Weight: 18493 Lb
09:22 Wind:225º@011 Knots Heading: 135º Ground Speed: 267 Knots Altitude 7329 ft
09:37 Wind:221º@007 Knots Heading: 056º Ground Speed: 259 Knots Altitude 3999 ft
09:39 Flaps:1 at 198 Knots
09:39 Flaps:2 at 187 Knots
09:40 Flaps:3 at 172 Knots
09:40 Flaps:4 at 170 Knots
09:40 Gear Down: 170 Knots
09:40 Flaps:5 at 170 Knots
09:40 Flaps:4 at 170 Knots
09:40 Flaps:5 at 170 Knots
09:41 Flaps:6 at 170 Knots
09:43 TouchDown:Rate -281 ft/min Speed: 136 Knots
09:44 VATSIM:LEVC 040930Z VRB02KT 9999 FEW030 15/14 Q0999 NOSIG
09:44 Land
09:44 Wind:003º@002 Knots
09:44 Heading: 295º
09:44 Flight Duration: 01:07
09:44 Landing Weight: 217473 Lbs
09:44 POS N39º 29´ 16´´ W000º 28´ 40´´
09:46 Parking brakes on
09:46 Block to Block Duration: 01:16
09:46 Final Fuel: 15074 Lbls
09:46 Spent Fuel: 11097 Lbls
09:46 Flight Length: 382 NM
09:46 TOD Land Length: 158 NM

Exportar CSV

Powered by Drupal - Modified by Danger4k